createdAt,value
2019-04-30T00:01:59.394Z,100618.62
2019-04-30T00:04:40.413Z,100621.84
2019-04-30T00:07:15.554Z,100617.08
2019-04-30T00:09:53.916Z,100612.70
2019-04-30T00:12:30.941Z,100613.98
2019-04-30T00:15:11.106Z,100613.86
2019-04-30T00:17:52.836Z,100609.66
2019-04-30T00:20:34.216Z,100615.47
2019-04-30T00:23:08.782Z,100613.20
2019-04-30T00:25:41.352Z,100610.43
2019-04-30T00:28:15.538Z,100608.55
2019-04-30T00:30:49.467Z,100611.82
2019-04-30T00:33:23.174Z,100613.26
2019-04-30T00:35:58.169Z,100604.01
2019-04-30T00:38:34.282Z,100604.07
2019-04-30T00:41:10.827Z,100610.39
2019-04-30T00:43:49.271Z,100606.61
2019-04-30T00:46:27.322Z,100604.73
2019-04-30T00:49:09.278Z,100597.81
2019-04-30T00:51:49.870Z,100596.96
2019-04-30T00:54:29.353Z,100597.37
2019-04-30T00:57:07.650Z,100598.36
2019-04-30T00:59:46.555Z,100590.98
2019-04-30T01:02:35.856Z,100589.94
2019-04-30T01:05:11.564Z,100590.66
2019-04-30T01:07:48.708Z,100587.06
2019-04-30T01:10:28.214Z,100586.88
2019-04-30T01:13:08.066Z,100583.45
2019-04-30T01:15:44.033Z,100582.19
2019-04-30T01:18:23.610Z,100580.30
2019-04-30T01:21:02.919Z,100577.25
2019-04-30T01:23:48.209Z,100576.91
2019-04-30T01:26:27.735Z,100577.69
2019-04-30T01:29:05.338Z,100573.14
2019-04-30T01:31:40.727Z,100567.71
2019-04-30T01:34:14.163Z,100571.52
2019-04-30T01:36:48.429Z,100569.48
2019-04-30T01:39:29.992Z,100565.87
2019-04-30T01:42:07.949Z,100567.22
2019-04-30T01:44:50.510Z,100567.33
2019-04-30T01:47:27.662Z,100568.09
2019-04-30T01:50:04.886Z,100571.02
2019-04-30T01:52:44.174Z,100576.80
2019-04-30T01:55:19.624Z,100571.08
2019-04-30T01:58:10.830Z,100572.56
2019-04-30T02:00:59.406Z,100570.08
2019-04-30T02:03:32.053Z,100567.14
2019-04-30T02:06:06.174Z,100574.17
2019-04-30T02:08:39.315Z,100568.69
2019-04-30T02:11:12.611Z,100573.13
2019-04-30T02:13:46.753Z,100572.58
2019-04-30T02:16:21.134Z,100575.51
2019-04-30T02:18:56.032Z,100575.05
2019-04-30T02:21:31.816Z,100571.52
2019-04-30T02:24:05.814Z,100574.41
2019-04-30T02:26:38.612Z,100569.39
2019-04-30T02:29:11.579Z,100575.25
2019-04-30T02:31:44.427Z,100576.20
2019-04-30T02:34:30.231Z,100579.31
2019-04-30T02:37:10.702Z,100578.34
2019-04-30T02:39:43.199Z,100579.80
2019-04-30T02:42:20.068Z,100579.35
2019-04-30T02:44:54.343Z,100578.39
2019-04-30T02:47:30.397Z,100575.12
2019-04-30T02:50:15.278Z,100584.44
2019-04-30T02:52:51.936Z,100579.41
2019-04-30T02:55:45.013Z,100580.61
2019-04-30T02:58:20.827Z,100581.52
2019-04-30T03:00:53.596Z,100581.73
2019-04-30T03:03:26.640Z,100577.52
2019-04-30T03:05:59.626Z,100573.97
2019-04-30T03:08:32.371Z,100582.50
2019-04-30T03:11:05.212Z,100574.75
2019-04-30T03:13:40.023Z,100571.77
2019-04-30T03:16:24.655Z,100569.83
2019-04-30T03:19:10.783Z,100563.90
2019-04-30T03:21:50.271Z,100562.48
2019-04-30T03:24:23.207Z,100563.19
2019-04-30T03:26:55.615Z,100558.87
2019-04-30T03:29:30.208Z,100564.03
2019-04-30T03:32:03.773Z,100558.48
2019-04-30T03:34:36.423Z,100563.81
2019-04-30T03:37:11.531Z,100561.30
2019-04-30T03:39:44.911Z,100562.09
2019-04-30T03:42:19.913Z,100562.14
2019-04-30T03:44:52.700Z,100563.25
2019-04-30T03:47:25.434Z,100562.75
2019-04-30T03:50:00.055Z,100561.09
2019-04-30T03:52:32.690Z,100557.77
2019-04-30T03:55:06.188Z,100562.65
2019-04-30T03:57:39.925Z,100550.79
2019-04-30T04:00:29.981Z,100555.39
2019-04-30T04:03:02.673Z,100557.33
2019-04-30T04:05:43.003Z,100553.30
2019-04-30T04:08:24.577Z,100550.19
2019-04-30T04:11:04.936Z,100552.02
2019-04-30T04:13:39.916Z,100555.18
2019-04-30T04:16:12.598Z,100556.61
2019-04-30T04:18:45.590Z,100560.61
2019-04-30T04:21:20.501Z,100566.19
2019-04-30T04:23:53.129Z,100559.60
2019-04-30T04:26:26.167Z,100562.09
2019-04-30T04:28:59.424Z,100560.99
2019-04-30T04:31:32.391Z,100564.91
2019-04-30T04:34:05.531Z,100563.03
2019-04-30T04:36:39.965Z,100568.84
2019-04-30T04:39:15.759Z,100568.13
2019-04-30T04:41:50.323Z,100561.09
2019-04-30T04:44:23.160Z,100557.67
2019-04-30T04:46:56.397Z,100560.59
2019-04-30T04:49:31.416Z,100566.02
2019-04-30T04:52:04.160Z,100564.36
2019-04-30T04:54:36.671Z,100565.15
2019-04-30T04:57:17.234Z,100566.58
2019-04-30T04:59:50.751Z,100565.70
2019-04-30T05:02:39.514Z,100562.77
2019-04-30T05:05:14.012Z,100560.98
2019-04-30T05:07:48.495Z,100560.88
2019-04-30T05:10:22.034Z,100560.09
2019-04-30T05:12:54.694Z,100565.30
2019-04-30T05:15:29.474Z,100562.25
2019-04-30T05:18:02.575Z,100559.98
2019-04-30T05:20:35.051Z,100560.27
2019-04-30T05:23:09.379Z,100562.42
2019-04-30T05:25:42.031Z,100565.14
2019-04-30T05:28:18.972Z,100567.55
2019-04-30T05:30:52.700Z,100565.58
2019-04-30T05:33:25.963Z,100572.50
2019-04-30T05:35:59.396Z,100574.39
2019-04-30T05:38:32.093Z,100573.05
2019-04-30T05:41:05.085Z,100577.66
2019-04-30T05:43:38.724Z,100586.34
2019-04-30T05:46:13.964Z,100586.62
2019-04-30T05:48:47.125Z,100587.77
2019-04-30T05:51:21.294Z,100590.16
2019-04-30T05:53:53.848Z,100591.53
2019-04-30T05:56:30.163Z,100590.58
2019-04-30T05:59:04.364Z,100587.74
2019-04-30T06:01:39.495Z,100587.38
2019-04-30T06:04:12.620Z,100593.96
2019-04-30T06:06:45.325Z,100593.66
2019-04-30T06:09:34.084Z,100593.20
2019-04-30T06:12:21.228Z,100591.05
2019-04-30T06:15:19.367Z,100598.38
2019-04-30T06:18:00.324Z,100602.44
2019-04-30T06:20:40.126Z,100600.23
2019-04-30T06:23:12.765Z,100603.03
2019-04-30T06:25:57.269Z,100598.11
2019-04-30T06:28:35.423Z,100595.94
2019-04-30T06:31:12.753Z,100597.41
2019-04-30T06:33:48.634Z,100603.36
2019-04-30T06:36:21.903Z,100597.66
2019-04-30T06:38:55.922Z,100609.69
2019-04-30T06:41:29.641Z,100606.28
2019-04-30T06:44:02.529Z,100607.19
2019-04-30T06:46:35.783Z,100608.41
2019-04-30T06:49:09.879Z,100618.75
2019-04-30T06:51:42.277Z,100619.48
2019-04-30T06:54:19.045Z,100626.38
2019-04-30T06:56:53.435Z,100623.42
2019-04-30T06:59:25.970Z,100623.38
2019-04-30T07:01:59.492Z,100627.72
2019-04-30T07:04:34.015Z,100625.32
2019-04-30T07:07:06.793Z,100624.98
2019-04-30T07:09:56.791Z,100624.33
2019-04-30T07:12:38.979Z,100614.66
2019-04-30T07:15:14.843Z,100614.54
2019-04-30T07:17:49.150Z,100616.64
2019-04-30T07:20:23.544Z,100620.80
2019-04-30T07:23:02.336Z,100627.23
2019-04-30T07:25:36.339Z,100617.61
2019-04-30T07:28:09.188Z,100616.31
2019-04-30T07:30:45.269Z,100625.94
2019-04-30T07:33:20.954Z,100623.56
2019-04-30T07:35:54.954Z,100629.87
2019-04-30T07:38:30.114Z,100629.34
2019-04-30T07:41:02.563Z,100630.89
2019-04-30T07:43:39.058Z,100630.35
2019-04-30T07:46:12.657Z,100634.72
2019-04-30T07:48:45.206Z,100627.11
2019-04-30T07:51:21.494Z,100625.41
2019-04-30T07:53:55.417Z,100624.28
2019-04-30T07:56:34.952Z,100626.42
2019-04-30T07:59:11.384Z,100626.31
2019-04-30T08:02:00.263Z,100628.18
2019-04-30T08:04:41.463Z,100629.30
2019-04-30T08:07:16.141Z,100628.88
2019-04-30T08:09:49.437Z,100626.91
2019-04-30T08:12:30.434Z,100621.30
2019-04-30T08:15:10.403Z,100629.06
2019-04-30T08:18:00.061Z,100631.54
2019-04-30T08:20:39.332Z,100634.64
2019-04-30T08:23:20.175Z,100628.77
2019-04-30T08:26:04.567Z,100631.32
2019-04-30T08:28:38.814Z,100627.61
2019-04-30T08:31:15.600Z,100633.23
2019-04-30T08:33:49.040Z,100638.98
2019-04-30T08:36:22.213Z,100632.54
2019-04-30T08:38:56.245Z,100630.37
2019-04-30T08:41:31.170Z,100631.18
2019-04-30T08:44:05.308Z,100622.41
2019-04-30T08:46:39.883Z,100628.40
2019-04-30T08:49:18.900Z,100620.20
2019-04-30T08:51:53.010Z,100619.47
2019-04-30T08:54:26.344Z,100621.45
2019-04-30T08:57:00.370Z,100620.55
2019-04-30T08:59:33.694Z,100620.95
2019-04-30T09:02:16.052Z,100621.56
2019-04-30T09:04:58.812Z,100618.02
2019-04-30T09:07:33.224Z,100621.66
2019-04-30T09:10:06.514Z,100621.14
2019-04-30T09:12:40.165Z,100608.80
2019-04-30T09:15:15.639Z,100608.19
2019-04-30T09:18:00.675Z,100607.64
2019-04-30T09:20:39.098Z,100604.67
2019-04-30T09:23:14.339Z,100609.33
2019-04-30T09:25:49.668Z,100612.28
2019-04-30T09:28:23.993Z,100611.77
2019-04-30T09:31:01.178Z,100610.92
2019-04-30T09:33:34.816Z,100609.05
2019-04-30T09:36:09.523Z,100610.55
2019-04-30T09:38:43.672Z,100613.87
2019-04-30T09:41:16.936Z,100609.64
2019-04-30T09:43:52.011Z,100600.66
2019-04-30T09:46:27.166Z,100605.38
2019-04-30T09:49:02.647Z,100607.89
2019-04-30T09:51:39.423Z,100600.96
2019-04-30T09:54:13.910Z,100600.25
2019-04-30T09:56:49.610Z,100598.05
2019-04-30T09:59:26.165Z,100587.61
2019-04-30T10:01:59.706Z,100590.92
2019-04-30T10:04:34.228Z,100587.69
2019-04-30T10:07:09.638Z,100587.98
2019-04-30T10:09:42.994Z,100587.32
2019-04-30T10:12:15.812Z,100588.16
2019-04-30T10:14:49.443Z,100583.36
2019-04-30T10:17:41.549Z,100579.67
2019-04-30T10:20:41.418Z,100577.97
2019-04-30T10:23:14.579Z,100569.42
2019-04-30T10:25:47.255Z,100571.83
2019-04-30T10:28:21.266Z,100563.41
2019-04-30T10:30:54.491Z,100562.29
2019-04-30T10:33:28.719Z,100567.35
2019-04-30T10:36:03.192Z,100564.95
2019-04-30T10:38:36.592Z,100557.60
2019-04-30T10:41:11.174Z,100556.08
2019-04-30T10:43:45.853Z,100557.78
2019-04-30T10:46:20.405Z,100551.77
2019-04-30T10:48:56.741Z,100548.95
2019-04-30T10:51:29.405Z,100548.70
2019-04-30T10:54:01.935Z,100536.70
2019-04-30T10:56:36.078Z,100536.17
2019-04-30T10:59:12.737Z,100533.86
2019-04-30T11:01:45.507Z,100532.49
2019-04-30T11:04:20.691Z,100528.89
2019-04-30T11:06:55.950Z,100526.44
2019-04-30T11:09:31.057Z,100524.92
2019-04-30T11:12:05.630Z,100523.16
2019-04-30T11:14:38.109Z,100523.42
2019-04-30T11:17:13.771Z,100523.25
2019-04-30T11:19:49.295Z,100517.53
2019-04-30T11:22:23.606Z,100517.34
2019-04-30T11:25:01.785Z,100509.53
2019-04-30T11:27:37.199Z,100512.09
2019-04-30T11:30:23.402Z,100501.77
2019-04-30T11:33:03.400Z,100503.70
2019-04-30T11:35:39.359Z,100500.70
2019-04-30T11:38:12.492Z,100503.77
2019-04-30T11:40:48.636Z,100500.30
2019-04-30T11:43:21.266Z,100498.37
2019-04-30T11:46:40.710Z,100487.87
2019-04-30T11:49:13.466Z,100480.59
2019-04-30T11:51:46.203Z,100481.30
2019-04-30T11:54:19.426Z,100481.83
2019-04-30T11:56:52.895Z,100480.56
2019-04-30T11:59:29.775Z,100475.37
2019-04-30T12:02:15.266Z,100469.19
2019-04-30T12:04:49.568Z,100467.52
2019-04-30T12:07:41.835Z,100462.50
2019-04-30T12:10:30.136Z,100465.95
2019-04-30T12:13:23.499Z,100462.15
2019-04-30T12:15:58.926Z,100461.69
2019-04-30T12:18:34.799Z,100463.98
2019-04-30T12:21:08.978Z,100462.68
2019-04-30T12:23:42.904Z,100462.06
2019-04-30T12:26:16.582Z,100458.17
2019-04-30T12:28:50.463Z,100445.88
2019-04-30T12:31:24.898Z,100454.33
2019-04-30T12:33:58.924Z,100450.50
2019-04-30T12:36:33.868Z,100449.89
2019-04-30T12:39:12.048Z,100446.52
2019-04-30T12:41:45.603Z,100447.81
2019-04-30T12:44:18.965Z,100452.62
2019-04-30T12:46:52.844Z,100450.59
2019-04-30T12:49:53.357Z,100449.13
2019-04-30T12:52:46.231Z,100446.91
2019-04-30T12:59:01.209Z,100433.43
2019-04-30T13:01:34.721Z,100432.88
2019-04-30T13:04:15.794Z,100428.19
2019-04-30T13:06:53.572Z,100423.91
2019-04-30T13:09:33.647Z,100422.03
2019-04-30T13:12:10.259Z,100418.28
2019-04-30T13:14:51.466Z,100417.27
2019-04-30T13:17:33.326Z,100412.51
2019-04-30T13:20:18.540Z,100418.30
2019-04-30T13:22:54.779Z,100417.97
2019-04-30T13:25:34.810Z,100412.52
2019-04-30T13:28:15.293Z,100405.23
2019-04-30T13:30:49.425Z,100404.47
2019-04-30T13:33:39.594Z,100393.90
2019-04-30T13:36:22.110Z,100395.58
2019-04-30T13:39:10.872Z,100400.33
2019-04-30T13:42:01.471Z,100399.60
2019-04-30T13:44:39.379Z,100398.24
2019-04-30T13:47:19.076Z,100392.31
2019-04-30T13:49:54.625Z,100387.49
2019-04-30T13:52:30.971Z,100375.61
2019-04-30T13:55:10.977Z,100378.27
2019-04-30T13:57:48.360Z,100374.75
2019-04-30T14:00:29.819Z,100373.05
2019-04-30T14:03:23.548Z,100372.13
2019-04-30T14:06:01.302Z,100372.48
2019-04-30T14:08:48.802Z,100367.28
2019-04-30T14:11:49.528Z,100363.22
2019-04-30T14:14:29.596Z,100364.23
2019-04-30T14:17:15.734Z,100357.83
2019-04-30T14:19:54.307Z,100351.63
2019-04-30T14:22:46.715Z,100359.94
2019-04-30T14:25:56.687Z,100353.16
2019-04-30T14:28:33.065Z,100351.41
2019-04-30T14:31:07.567Z,100348.27
2019-04-30T14:33:42.222Z,100344.05
2019-04-30T14:36:15.516Z,100338.94
2019-04-30T14:38:48.928Z,100335.02
2019-04-30T14:41:24.371Z,100337.70
2019-04-30T14:44:05.414Z,100339.28
2019-04-30T14:46:52.767Z,100338.97
2019-04-30T14:49:33.004Z,100336.39
2019-04-30T14:52:09.370Z,100334.81
2019-04-30T14:54:58.850Z,100335.41
2019-04-30T14:57:53.930Z,100336.98
2019-04-30T15:00:59.331Z,100330.56
2019-04-30T15:03:46.397Z,100330.19
2019-04-30T15:06:21.489Z,100330.20
2019-04-30T15:08:55.131Z,100330.28
2019-04-30T15:11:28.914Z,100329.06
2019-04-30T15:14:02.570Z,100327.98
2019-04-30T15:16:37.260Z,100323.70
2019-04-30T15:19:10.277Z,100317.84
2019-04-30T15:21:46.317Z,100316.59
2019-04-30T15:24:29.309Z,100324.02
2019-04-30T15:27:02.340Z,100318.91
2019-04-30T15:29:39.627Z,100325.24
2019-04-30T15:32:12.682Z,100317.36
2019-04-30T15:34:48.932Z,100308.70
2019-04-30T15:37:23.952Z,100310.83
2019-04-30T15:39:59.255Z,100311.77
2019-04-30T15:42:33.815Z,100310.69
2019-04-30T15:45:09.260Z,100330.30
2019-04-30T15:47:42.447Z,100310.11
2019-04-30T15:50:15.254Z,100319.25
2019-04-30T15:52:49.747Z,100308.00
2019-04-30T15:55:31.601Z,100310.53
2019-04-30T15:58:16.688Z,100310.94
2019-04-30T16:00:50.846Z,100311.78
2019-04-30T16:03:28.995Z,100308.71
2019-04-30T16:06:04.786Z,100315.67
2019-04-30T16:08:48.431Z,100307.66
2019-04-30T16:11:36.373Z,100310.66
2019-04-30T16:14:29.837Z,100311.96
2019-04-30T16:17:11.229Z,100310.35
2019-04-30T16:19:46.198Z,100309.27
2019-04-30T16:22:20.774Z,100313.71
2019-04-30T16:24:54.704Z,100303.22
2019-04-30T16:27:27.974Z,100306.72
2019-04-30T16:30:05.677Z,100296.72
2019-04-30T16:32:39.566Z,100305.50
2019-04-30T16:35:13.695Z,100305.73
2019-04-30T16:37:49.640Z,100302.64
2019-04-30T16:40:24.264Z,100298.06
2019-04-30T16:42:57.789Z,100302.33
2019-04-30T16:45:31.286Z,100302.89
2019-04-30T16:48:04.576Z,100300.18
2019-04-30T16:50:37.213Z,100303.94
2019-04-30T16:53:10.551Z,100300.20
2019-04-30T16:55:43.669Z,100302.13
2019-04-30T16:58:19.640Z,100301.91
2019-04-30T17:00:55.103Z,100300.17
2019-04-30T17:03:39.210Z,100303.58
2019-04-30T17:06:17.318Z,100304.55
2019-04-30T17:09:03.207Z,100308.93
2019-04-30T17:11:54.623Z,100308.06
2019-04-30T17:14:41.943Z,100315.16
2019-04-30T17:17:15.681Z,100310.93
2019-04-30T17:19:50.027Z,100303.35
2019-04-30T17:22:22.723Z,100306.88
2019-04-30T17:24:55.291Z,100311.18
2019-04-30T17:27:29.411Z,100305.84
2019-04-30T17:30:05.120Z,100301.37
2019-04-30T17:32:39.456Z,100306.41
2019-04-30T17:35:15.494Z,100308.78
2019-04-30T17:37:48.456Z,100300.50
2019-04-30T17:40:22.679Z,100304.31
2019-04-30T17:42:57.646Z,100298.95
2019-04-30T17:45:31.309Z,100296.22
2019-04-30T17:48:04.895Z,100303.32
2019-04-30T17:50:39.707Z,100302.36
2019-04-30T17:53:18.959Z,100305.75
2019-04-30T17:55:59.033Z,100310.02
2019-04-30T17:58:34.843Z,100314.78
2019-04-30T18:01:10.641Z,100315.08
2019-04-30T18:03:45.219Z,100315.08
2019-04-30T18:06:18.987Z,100314.66
2019-04-30T18:08:52.454Z,100325.98
2019-04-30T18:11:25.379Z,100324.41
2019-04-30T18:14:00.020Z,100325.30
2019-04-30T18:16:35.840Z,100324.83
2019-04-30T18:19:36.125Z,100325.83
2019-04-30T18:22:29.366Z,100328.42
2019-04-30T18:25:14.022Z,100327.36
2019-04-30T18:27:53.569Z,100329.27
2019-04-30T18:30:33.140Z,100328.14
2019-04-30T18:33:09.855Z,100327.00
2019-04-30T18:35:43.149Z,100325.01
2019-04-30T18:38:17.781Z,100330.23
2019-04-30T18:40:55.044Z,100329.06
2019-04-30T18:43:29.768Z,100334.42
2019-04-30T18:46:05.528Z,100336.52
2019-04-30T18:48:41.404Z,100338.30
2019-04-30T18:51:30.752Z,100335.27
2019-04-30T18:54:10.203Z,100338.73
2019-04-30T18:56:43.207Z,100335.27
2019-04-30T18:59:17.218Z,100340.20
2019-04-30T19:01:51.734Z,100343.39
2019-04-30T19:04:28.794Z,100349.43
2019-04-30T19:07:21.734Z,100351.61
2019-04-30T19:10:06.732Z,100350.27
2019-04-30T19:13:08.941Z,100351.64
2019-04-30T19:16:21.920Z,100355.33
2019-04-30T19:19:06.318Z,100353.89
2019-04-30T19:21:40.371Z,100358.91
2019-04-30T19:24:15.006Z,100362.13
2019-04-30T19:26:50.141Z,100357.50
2019-04-30T19:29:24.648Z,100364.15
2019-04-30T19:32:00.124Z,100366.45
2019-04-30T19:34:35.774Z,100371.18
2019-04-30T19:37:09.572Z,100373.84
2019-04-30T19:39:45.420Z,100378.30
2019-04-30T19:42:25.776Z,100383.22
2019-04-30T19:45:12.121Z,100378.49
2019-04-30T19:47:46.095Z,100384.18
2019-04-30T19:50:19.413Z,100384.36
2019-04-30T19:52:58.772Z,100379.86
2019-04-30T19:55:35.237Z,100381.12
2019-04-30T19:58:46.719Z,100382.42
2019-04-30T20:01:41.327Z,100379.87
2019-04-30T20:04:18.526Z,100376.30
2019-04-30T20:06:56.578Z,100376.16
2019-04-30T20:09:37.561Z,100374.28
2019-04-30T20:12:13.504Z,100372.74
2019-04-30T20:14:49.680Z,100370.19
2019-04-30T20:17:24.626Z,100369.54
2019-04-30T20:19:58.900Z,100371.33
2019-04-30T20:22:35.000Z,100371.80
2019-04-30T20:25:10.376Z,100373.42
2019-04-30T20:27:43.573Z,100364.92
2019-04-30T20:30:19.422Z,100361.68
2019-04-30T20:32:55.785Z,100365.51
2019-04-30T20:35:31.423Z,100361.02
2019-04-30T20:38:10.684Z,100356.16
2019-04-30T20:40:59.532Z,100359.97
2019-04-30T20:43:35.545Z,100354.92
2019-04-30T20:46:08.813Z,100356.78
2019-04-30T20:48:42.860Z,100364.32
2019-04-30T20:51:19.576Z,100361.72
2019-04-30T20:53:55.067Z,100366.45
2019-04-30T20:56:33.358Z,100357.20
2019-04-30T20:59:13.090Z,100361.05
2019-04-30T21:01:46.448Z,100360.39
2019-04-30T21:04:21.574Z,100359.83
2019-04-30T21:06:55.188Z,100356.48
2019-04-30T21:09:33.274Z,100357.81
2019-04-30T21:12:05.763Z,100353.02
2019-04-30T21:14:40.920Z,100352.81
2019-04-30T21:17:16.631Z,100357.03
2019-04-30T21:19:51.059Z,100353.73
2019-04-30T21:22:25.683Z,100352.80
2019-04-30T21:25:00.616Z,100352.73
2019-04-30T21:27:35.368Z,100348.87
2019-04-30T21:30:11.892Z,100347.05
2019-04-30T21:33:09.394Z,100343.30
2019-04-30T21:35:58.584Z,100339.02
2019-04-30T21:38:33.199Z,100344.59
2019-04-30T21:41:09.836Z,100342.17
2019-04-30T21:43:45.455Z,100345.66
2019-04-30T21:46:29.329Z,100340.36
2019-04-30T21:49:02.079Z,100337.83
2019-04-30T21:51:35.289Z,100339.97
2019-04-30T21:54:10.518Z,100339.03
2019-04-30T21:56:43.019Z,100339.70
2019-04-30T21:59:24.149Z,100342.16
2019-04-30T22:01:57.817Z,100344.25
2019-04-30T22:04:31.436Z,100343.56
2019-04-30T22:07:04.079Z,100337.88
2019-04-30T22:09:36.619Z,100335.47
2019-04-30T22:12:09.551Z,100331.20
2019-04-30T22:14:43.130Z,100335.89
2019-04-30T22:17:15.794Z,100329.52
2019-04-30T22:19:52.374Z,100330.33
2019-04-30T22:22:25.239Z,100332.27
2019-04-30T22:25:03.124Z,100336.45
2019-04-30T22:27:35.674Z,100330.77
2019-04-30T22:30:09.583Z,100333.03
2019-04-30T22:32:45.775Z,100330.51
2019-04-30T22:35:41.296Z,100329.96
2019-04-30T22:38:29.186Z,100328.09
2019-04-30T22:41:02.508Z,100327.77
2019-04-30T22:43:35.281Z,100330.30
2019-04-30T22:46:13.573Z,100330.84
2019-04-30T22:48:47.408Z,100327.33
2019-04-30T22:51:19.941Z,100324.23
2019-04-30T22:53:54.342Z,100324.73
2019-04-30T22:56:27.513Z,100328.73
2019-04-30T22:59:02.243Z,100328.25
2019-04-30T23:01:56.435Z,100326.89
2019-04-30T23:04:42.346Z,100322.73
2019-04-30T23:07:14.922Z,100319.03
2019-04-30T23:09:49.047Z,100314.59
2019-04-30T23:12:24.174Z,100313.20
2019-04-30T23:14:56.639Z,100312.73
2019-04-30T23:17:30.154Z,100309.59
2019-04-30T23:20:04.611Z,100306.72
2019-04-30T23:22:38.407Z,100305.94
2019-04-30T23:25:11.934Z,100301.77
2019-04-30T23:27:44.570Z,100298.41
2019-04-30T23:30:17.081Z,100298.88
2019-04-30T23:32:51.968Z,100300.07
2019-04-30T23:35:24.534Z,100295.66
2019-04-30T23:37:57.339Z,100290.89
2019-04-30T23:40:48.878Z,100287.50
2019-04-30T23:43:22.379Z,100291.89
2019-04-30T23:45:54.879Z,100287.77
2019-04-30T23:48:27.712Z,100283.44
2019-04-30T23:51:00.659Z,100283.68
2019-04-30T23:53:33.978Z,100279.17
2019-04-30T23:56:06.830Z,100276.08
2019-04-30T23:58:39.430Z,100276.92
